• Join FlightAware (Why Join?)
  • Login
  • US Flag 
09:16AM EDT


 

Airport Tracker/Info


-or-


 

Live Flight TrackerFlight Track Log ✈ TAM3385 ✈ 13-Jun-2013 ✈ SBCF / CNF - SBGL / GIG

Flight Track Log - Related Links

Times and Time Zones

All times are in EDT time to prevent confusion due to time zone crossing. See the TAM3385 flight status page for this flight to view local times or setup timezone preferences in your user account.

Time Position Orientation Groundspeed Altitude Reporting Facility
EDT Latitude Longitude Course Direction KTS MPH feet Rate Location/Type
06:45AM -19.8060 -43.9280 184° South 275 316 8,800  Level FlightAware
06:46AM -19.8720 -43.9330 184° South 304 350 10,800 2,220 Climbing FlightAware
06:47AM -19.9420 -43.9380 184° South 350 403 12,100 2,040 Climbing FlightAware
06:47AM -19.9990 -43.9410 183° South 359 413 13,700 2,700 Climbing FlightAware
06:48AM -20.0730 -43.9460 184° South 362 417 15,800 2,640 Climbing FlightAware
06:49AM -20.1520 -43.9520 184° South 374 430 17,500 2,160 Climbing FlightAware
06:49AM -20.2200 -43.9570 184° South 382 440 18,900 1,860 Climbing FlightAware
06:50AM -20.3000 -43.9620 183° South 398 458 20,100 1,920 Climbing FlightAware
06:51AM -20.3850 -43.9680 184° South 405 466 21,700 1,860 Climbing FlightAware
06:52AM -20.4550 -43.9750 185° South 413 475 22,800 1,920 Climbing FlightAware
06:52AM -20.5380 -43.9830 185° South 414 476 24,300 1,740 Climbing FlightAware
06:53AM -20.6160 -43.9910 185° South 427 491 25,200 1,800 Climbing FlightAware
06:54AM -20.6940 -43.9990 185° South 420 483 26,800 2,400 Climbing FlightAware
06:54AM -20.7810 -44.0080 186° South 409 471 28,600 2,220 Climbing FlightAware
06:55AM -20.8490 -44.0140 185° South 405 466 29,800 900 Climbing FlightAware
06:56AM -20.8950 -44.0050 170° South 420 483 30,000 120 Climbing FlightAware
06:57AM -21.0300 -43.9590 162° South 410 472 30,000  Level FlightAware
06:57AM -21.0840 -43.9510 172° South 413 475 30,000  Level FlightAware
06:58AM -21.1670 -43.9360 170° South 415 478 30,000  Level FlightAware
06:59AM -21.1740 -43.9340 165° South 414 476 30,000 -660 Level FlightAware
06:59AM -21.3320 -43.9040 170° South 418 481 29,100 -1,620 Descending FlightAware
07:00AM -21.4290 -43.8850 170° South 407 468 27,500 -1,980 Descending FlightAware
07:01AM -21.5170 -43.8680 170° South 404 465 25,900 -2,040 Descending FlightAware
07:02AM -21.5820 -43.8550 169° South 397 457 24,700 -1,080 Descending FlightAware
07:02AM -21.5930 -43.8530 170° South 397 457 24,500 -1,080 Descending FlightAware
07:03AM -21.6720 -43.8380 170° South 387 445 23,200 -1,680 Descending FlightAware
07:04AM -21.7470 -43.8430 184° South 336 387 22,200 -1,200 Descending FlightAware
07:04AM -21.7890 -43.8890 225° Southwest 291 335 21,600 -780 Descending FlightAware
07:05AM -21.8030 -43.9290 249° West 272 313 21,000 -1,320 Descending FlightAware
07:06AM -21.7590 -44.0410 293° West 274 315 19,500 -1,200 Descending FlightAware
07:07AM -21.7510 -44.0460 330° Northwest 278 320 19,400 -720 Descending FlightAware
07:07AM -21.6990 -44.0620 344° North 306 352 18,700 -1,200 Descending FlightAware
07:08AM -21.6360 -44.0650 357° North 300 345 18,000 -900 Descending FlightAware
07:09AM -21.5960 -44.0670 357° North 300 345 17,500 -600 Descending FlightAware
07:10AM -21.5150 -44.0670 360° North 308 354 17,000 -360 Descending FlightAware
07:10AM -21.4640 -44.0330 32° Northeast 327 376 17,000  Level FlightAware
07:11AM -21.4600 -43.9350 88° East 372 428 17,000  Level FlightAware
07:11AM -21.4710 -43.9240 137° Southeast 361 415 17,000  Level FlightAware
07:12AM -21.5340 -43.9030 163° South 333 383 17,000  Level FlightAware
07:13AM -21.5990 -43.8910 170° South 330 380 17,000  Level FlightAware
07:14AM -21.7010 -43.9230 196° South 264 304 17,000  Level FlightAware
07:15AM -21.7160 -43.9610 247° West 254 292 17,000  Level FlightAware
07:15AM -21.7290 -43.9810 235° Southwest 282 325 17,000  Level FlightAware
07:15AM -21.7740 -43.9920 193° South 334 384 17,000  Level FlightAware
07:16AM -21.8340 -43.9470 145° Southeast 352 405 17,000 -120 Level FlightAware
07:17AM -21.8870 -43.9000 141° Southeast 362 417 16,900 -360 Descending FlightAware
07:17AM -21.9320 -43.8620 142° Southeast 355 409 16,600 -480 Descending FlightAware
07:19AM -22.0170 -43.7900 142° Southeast 343 395 16,100 -420 Descending FlightAware
07:19AM -22.0600 -43.7550 143° Southeast 341 392 15,800 -660 Descending FlightAware
07:20AM -22.0990 -43.7300 149° Southeast 339 390 15,200 -1,140 Descending FlightAware
07:21AM -22.2200 -43.6520 149° Southeast 263 303 14,000 -1,440 Descending FlightAware
07:22AM -22.2680 -43.6200 148° Southeast 259 298 12,900 -1,500 Descending FlightAware
07:22AM -22.3020 -43.5980 149° Southeast 253 291 12,200 -1,320 Descending FlightAware
07:23AM -22.3410 -43.5720 148° Southeast 245 282 11,300 -1,200 Descending FlightAware
07:24AM -22.3830 -43.5440 148° Southeast 229 264 10,500 -720 Descending FlightAware
07:25AM -22.4200 -43.5370 170° South 224 258 10,100 -300 Descending FlightAware
07:25AM -22.4550 -43.5300 170° South 224 258 10,100 -2,460 Level FlightAware
07:25AM -22.4780 -43.5750 241° Southwest 212 244 8,100 -3,120 Descending FlightAware
07:26AM -22.5030 -43.5950 216° Southwest 209 241 7,900 -900 Descending FlightAware
07:26AM -22.5220 -43.6110 218° Southwest 208 239 7,300 -960 Descending FlightAware
07:27AM -22.5350 -43.6230 220° Southwest 208 239 7,300  Level FlightAware
07:27AM -22.5510 -43.6360 217° Southwest 207 238 7,300  Level FlightAware
07:28AM -22.5810 -43.6600 216° Southwest 208 239 7,300  Level FlightAware
07:28AM -22.6000 -43.6750 216° Southwest 208 239 7,300  Level FlightAware
07:29AM -22.6250 -43.6960 218° Southwest 209 241 7,300  Level FlightAware
07:30AM -22.6690 -43.7320 217° Southwest 209 241 7,300  Level FlightAware
07:30AM -22.6760 -43.7380 218° Southwest 209 241 7,300 -240 Level FlightAware
07:30AM -22.7080 -43.7640 217° Southwest 207 238 7,100 -420 Descending FlightAware
07:31AM -22.7180 -43.7720 216° Southwest 207 238 7,000 -480 Descending FlightAware
07:31AM -22.7450 -43.7860 206° Southwest 209 241 6,800 -240 Descending FlightAware
07:32AM -22.7640 -43.7740 150° Southeast 218 251 6,800  Level FlightAware
07:32AM -22.7850 -43.7530 137° Southeast 219 252 6,800 -420 Level FlightAware
07:33AM -22.8120 -43.7250 136° Southeast 213 245 6,400 -780 Descending FlightAware
07:33AM -22.8290 -43.7080 137° Southeast 205 236 6,100 -780 Descending FlightAware
07:33AM -22.8510 -43.6870 139° Southeast 193 222 5,700 -1,020 Descending FlightAware
07:34AM -22.8650 -43.6730 137° Southeast 196 226 5,200 -1,080 Descending FlightAware
07:34AM -22.8750 -43.6630 137° Southeast 195 224 5,000 -600 Descending FlightAware
07:35AM -22.8850 -43.6420 117° Southeast 195 224 4,800 -180 Descending FlightAware
07:36AM -22.8790 -43.5850 83° East 194 223 4,800  Level FlightAware
07:36AM -22.8770 -43.5690 82° East 194 223 4,800  Level FlightAware
07:36AM -22.8750 -43.5450 85° East 194 223 4,800  Level FlightAware
07:37AM -22.8680 -43.5140 76° East 193 222 4,800 -360 Level FlightAware
07:37AM -22.8630 -43.4940 75° East 184 212 4,500 -780 Descending FlightAware
07:38AM -22.8570 -43.4680 76° East 176 203 4,100 -900 Descending FlightAware
07:38AM -22.8510 -43.4450 74° East 162 186 3,700 -1,020 Descending FlightAware
07:38AM -22.8460 -43.4260 74° East 158 182 3,300 -1,020 Descending FlightAware
07:39AM -22.8390 -43.3980 75° East 153 176 2,700 -900 Descending FlightAware
07:40AM -22.8340 -43.3810 72° East 145 167 2,400 -840 Descending FlightAware
07:40AM -22.8240 -43.3430 74° East 136 157 1,600 -840 Descending FlightAware
07:41AM -22.8210 -43.3290 77° East 134 154 1,300 -780 Descending FlightAware
07:41AM -22.8150 -43.3060 74° East 133 153 900 -780 Descending FlightAware
07:42AM -22.8150 -43.3050 90° East 133 153 800 -600 Descending FlightAware
07:42AM -22.8090 -43.2830 74° East 131 151 500 -420 Descending FlightAware
07:43AM -22.8030 -43.2590 75° East 131 151 300 -300 Descending FlightAware
07:43AM -22.7980 -43.2410 73° East 131 151 -720 Descending FlightAware
07:44AM -22.7970 -43.2360 78° East 131 151  Level FlightAware
07:44AM -22.7850 -43.2300 25° Northeast 131 151  Level FlightAware
07:47AM -22.8089 -43.2436 208° Southwest  Level Estimated
07:48AM -22.8089 -43.2436 137° Southeast  Level Estimated
07:49AM -22.8089 -43.2436 137° Southeast  Level Estimated
07:50AM -22.8089 -43.2436 137° Southeast  Level Estimated
07:51AM -22.8089 -43.2436 137° Southeast  Level Estimated